createdAt,value
2022-10-12T00:01:24.034Z,4170.9
2022-10-12T00:07:03.278Z,4171.6
2022-10-12T00:12:38.211Z,4171.6
2022-10-12T00:18:13.113Z,4170.7
2022-10-12T00:24:04.591Z,4170.6
2022-10-12T00:29:46.560Z,4171.6
2022-10-12T00:35:29.523Z,4169.7
2022-10-12T00:41:10.399Z,4166.9
2022-10-12T00:46:55.020Z,4168.6
2022-10-12T00:52:50.761Z,4170.7
2022-10-12T00:58:26.048Z,4168.1
2022-10-12T01:04:03.775Z,4164.6
2022-10-12T01:09:39.940Z,4166.9
2022-10-12T01:15:23.416Z,4165.6
2022-10-12T01:20:58.390Z,4168.9
2022-10-12T01:26:47.183Z,4165.6
2022-10-12T01:32:23.891Z,4164.9
2022-10-12T01:37:58.992Z,4166.2
2022-10-12T01:43:33.928Z,4165.9
2022-10-12T01:49:11.503Z,4163
2022-10-12T01:54:46.493Z,4164.9
2022-10-12T02:00:21.725Z,4166.4
2022-10-12T02:05:58.828Z,4167.6
2022-10-12T02:11:35.833Z,4163.9
2022-10-12T02:17:31.357Z,4163.9
2022-10-12T02:23:07.837Z,4163.9
2022-10-12T02:28:43.717Z,4159.2
2022-10-12T02:34:18.992Z,4163.5
2022-10-12T02:40:03.766Z,4160.4
2022-10-12T02:45:38.749Z,4161.2
2022-10-12T02:51:51.838Z,4161.7
2022-10-12T02:58:01.829Z,4159.5
2022-10-12T03:03:49.589Z,4162.2
2022-10-12T03:09:24.749Z,4163.2
2022-10-12T03:14:59.366Z,4161.9
2022-10-12T03:20:53.187Z,4159.9
2022-10-12T03:26:49.284Z,4158
2022-10-12T03:32:24.221Z,4161.2
2022-10-12T03:38:02.857Z,4157.5
2022-10-12T03:44:25.665Z,4161.4
2022-10-12T03:50:03.567Z,4156
2022-10-12T03:55:40.569Z,4157.5
2022-10-12T04:01:16.716Z,4157.5
2022-10-12T04:06:52.236Z,4158.2
2022-10-12T04:12:27.173Z,4157.7
2022-10-12T04:18:19.904Z,4156.3
2022-10-12T04:23:54.775Z,4154.7
2022-10-12T04:29:29.687Z,4155.5
2022-10-12T04:35:05.877Z,4154.7
2022-10-12T04:40:40.816Z,4153
2022-10-12T04:46:21.969Z,4154.2
2022-10-12T04:51:57.793Z,4154.3
2022-10-12T04:57:40.667Z,4152.5
2022-10-12T05:03:18.556Z,4153.7
2022-10-12T05:10:31.575Z,4152.5
2022-10-12T05:16:06.862Z,4151.5
2022-10-12T05:22:04.379Z,4151.3
2022-10-12T05:27:47.604Z,4151.8
2022-10-12T05:33:50.500Z,4150.8
2022-10-12T05:39:25.490Z,4153.7
2022-10-12T05:45:11.532Z,4151.2
2022-10-12T05:51:13.526Z,4150.6
2022-10-12T05:56:55.382Z,4150.8
2022-10-12T06:02:31.213Z,4149.5
2022-10-12T06:08:06.011Z,4151.5
2022-10-12T06:13:40.979Z,4151.5
2022-10-12T06:19:15.953Z,4150.6
2022-10-12T06:24:53.703Z,4149.5
2022-10-12T06:30:29.074Z,4149.6
2022-10-12T06:36:04.288Z,4149.5
2022-10-12T06:41:44.454Z,4148.3
2022-10-12T06:47:20.450Z,4148.8
2022-10-12T06:52:55.696Z,4149
2022-10-12T06:59:21.427Z,4150.5
2022-10-12T07:04:59.963Z,4150.5
2022-10-12T07:10:37.122Z,4153.5
2022-10-12T07:16:34.163Z,4153.8
2022-10-12T07:22:10.189Z,4149.5
2022-10-12T07:28:01.563Z,4150
2022-10-12T07:34:01.263Z,4158.7
2022-10-12T07:39:42.212Z,4157.2
2022-10-12T07:45:18.527Z,4163.5
2022-10-12T07:50:54.420Z,4158.9
2022-10-12T07:58:02.195Z,4163
2022-10-12T08:03:48.360Z,4164.6
2022-10-12T08:09:32.579Z,4167.1
2022-10-12T08:15:21.386Z,4163
2022-10-12T08:21:27.456Z,4165.9
2022-10-12T08:27:02.825Z,4169.6
2022-10-12T08:32:37.951Z,4167.2
2022-10-12T08:38:21.946Z,4170.2
2022-10-12T08:43:56.931Z,4173.8
2022-10-12T08:49:32.256Z,4171.4
2022-10-12T08:55:07.284Z,4179.1
2022-10-12T09:00:42.859Z,4181.5
2022-10-12T09:06:19.307Z,4187.2
2022-10-12T09:11:54.726Z,4191.2
2022-10-12T09:17:29.638Z,4177.6
2022-10-12T09:23:04.568Z,4177.3
2022-10-12T09:28:40.626Z,4177.8
2022-10-12T09:34:20.650Z,4175.3
2022-10-12T09:39:56.036Z,4171.4
2022-10-12T09:45:31.126Z,4179.5
2022-10-12T09:51:05.881Z,4184.8
2022-10-12T09:56:41.448Z,4193
2022-10-12T10:02:16.554Z,4200.7
2022-10-12T10:07:52.452Z,4198.1
2022-10-12T10:13:27.462Z,4196
2022-10-12T10:19:03.055Z,4196.4
2022-10-12T10:24:39.518Z,4205.6
2022-10-12T10:30:43.414Z,4203.9
2022-10-12T10:36:20.042Z,4209.6
2022-10-12T10:41:55.142Z,4209.6
2022-10-12T10:47:30.552Z,4193.9
2022-10-12T10:53:05.243Z,4192.4
2022-10-12T10:58:40.003Z,4194
2022-10-12T11:04:15.515Z,4203.1
2022-10-12T11:09:50.692Z,4212.5
2022-10-12T11:15:28.995Z,4216.1
2022-10-12T11:21:21.098Z,4218.2
2022-10-12T11:26:56.042Z,4217.1
2022-10-12T11:32:31.245Z,4211.8
2022-10-12T11:38:06.640Z,4207.1
2022-10-12T11:43:41.746Z,4206.6
2022-10-12T11:49:16.921Z,4210.4
2022-10-12T11:54:51.903Z,4206.4
2022-10-12T12:00:26.811Z,4209.8
2022-10-12T12:06:01.665Z,4210.8
2022-10-12T12:11:36.912Z,4213
2022-10-12T12:17:11.752Z,4208.8
2022-10-12T12:22:46.744Z,4209.1
2022-10-12T12:28:23.189Z,4213.5
2022-10-12T12:34:03.252Z,4223.8
2022-10-12T12:39:38.282Z,4221.5
2022-10-12T12:45:13.301Z,4216.6
2022-10-12T12:50:48.048Z,4215.1
2022-10-12T12:56:22.795Z,4204.8
2022-10-12T13:01:59.000Z,4203.4
2022-10-12T13:07:35.801Z,4208.3
2022-10-12T13:13:10.599Z,4201.9
2022-10-12T13:18:50.391Z,4203.7
2022-10-12T13:24:25.504Z,4205.4
2022-10-12T13:30:00.582Z,4205.9
2022-10-12T13:35:36.100Z,4210.8
2022-10-12T13:41:11.547Z,4213.8
2022-10-12T13:46:46.493Z,4210.1
2022-10-12T13:52:21.411Z,4209.3
2022-10-12T13:57:56.654Z,4207.6
2022-10-12T14:03:31.657Z,4213.5
2022-10-12T14:09:06.598Z,4206.3
2022-10-12T14:14:45.563Z,4210.1
2022-10-12T14:20:21.541Z,4210.6
2022-10-12T14:25:56.918Z,4219.7
2022-10-12T14:31:32.680Z,4208.3
2022-10-12T14:37:08.035Z,4224.5
2022-10-12T14:42:46.873Z,4219
2022-10-12T14:48:22.357Z,4220.3
2022-10-12T14:53:58.189Z,4225.4
2022-10-12T14:59:33.180Z,4217.6
2022-10-12T15:05:08.308Z,4224.2
2022-10-12T15:10:43.350Z,4210.3
2022-10-12T15:16:18.359Z,4213.1
2022-10-12T15:21:54.347Z,4208.6
2022-10-12T15:27:29.077Z,4213.3
2022-10-12T15:33:04.069Z,4210.6
2022-10-12T15:38:39.334Z,4204.4
2022-10-12T15:44:14.217Z,4205.9
2022-10-12T15:49:49.216Z,4207.9
2022-10-12T15:55:25.014Z,4204.8
2022-10-12T16:01:00.692Z,4201.2
2022-10-12T16:06:35.696Z,4199.6
2022-10-12T16:12:10.739Z,4200.1
2022-10-12T16:17:45.591Z,4205.3
2022-10-12T16:23:20.419Z,4203.4
2022-10-12T16:28:56.023Z,4199.2
2022-10-12T16:34:31.104Z,4194.7
2022-10-12T16:40:06.771Z,4196.4
2022-10-12T16:45:41.841Z,4198.9
2022-10-12T16:51:16.798Z,4197
2022-10-12T16:56:51.465Z,4194.7
2022-10-12T17:02:34.964Z,4194.4
2022-10-12T17:08:16.818Z,4194.9
2022-10-12T17:13:51.752Z,4195.7
2022-10-12T17:19:26.742Z,4193.2
2022-10-12T17:25:01.930Z,4191.7
2022-10-12T17:30:36.678Z,4191
2022-10-12T17:36:12.344Z,4193.7
2022-10-12T17:41:57.025Z,4195.2
2022-10-12T17:47:32.156Z,4192.9
2022-10-12T17:53:07.537Z,4192.5
2022-10-12T17:58:51.306Z,4191.5
2022-10-12T18:04:35.009Z,4185.5
2022-10-12T18:10:10.957Z,4192.2
2022-10-12T18:15:54.178Z,4189.8
2022-10-12T18:21:37.216Z,4192
2022-10-12T18:27:21.207Z,4191.5
2022-10-12T18:32:56.470Z,4191.4
2022-10-12T18:38:31.316Z,4187.7
2022-10-12T18:44:06.554Z,4189
2022-10-12T18:49:42.571Z,4190.2
2022-10-12T18:55:17.357Z,4186.5
2022-10-12T19:00:55.393Z,4186.8
2022-10-12T19:06:30.430Z,4184.8
2022-10-12T19:12:05.839Z,4185.5
2022-10-12T19:17:41.548Z,4187.2
2022-10-12T19:23:42.264Z,4185
2022-10-12T19:29:17.182Z,4183.8
2022-10-12T19:34:58.144Z,4185.5
2022-10-12T19:40:34.286Z,4183.3
2022-10-12T19:46:09.065Z,4180.6
2022-10-12T19:51:45.158Z,4182.6
2022-10-12T19:57:24.155Z,4185
2022-10-12T20:02:58.938Z,4181.5
2022-10-12T20:08:51.515Z,4183.3
2022-10-12T20:14:26.723Z,4182.1
2022-10-12T20:20:11.440Z,4177.6
2022-10-12T20:25:46.847Z,4179.3
2022-10-12T20:31:24.707Z,4179
2022-10-12T20:37:02.781Z,4180
2022-10-12T20:42:50.179Z,4183.1
2022-10-12T20:48:28.480Z,4182.1
2022-10-12T20:54:48.074Z,4178.6
2022-10-12T21:00:23.623Z,4176.1
2022-10-12T21:05:58.246Z,4180
2022-10-12T21:11:33.389Z,4176.6
2022-10-12T21:17:09.303Z,4176.8
2022-10-12T21:23:00.823Z,4179.1
2022-10-12T21:28:53.734Z,4178.3
2022-10-12T21:34:37.161Z,4177.6
2022-10-12T21:40:33.172Z,4175.6
2022-10-12T21:46:08.179Z,4179.5
2022-10-12T21:51:44.528Z,4176.3
2022-10-12T21:57:19.706Z,4176.1
2022-10-12T22:02:54.590Z,4175.4
2022-10-12T22:08:30.010Z,4175.8
2022-10-12T22:14:11.905Z,4178
2022-10-12T22:19:46.864Z,4175.1
2022-10-12T22:25:22.487Z,4173.9
2022-10-12T22:30:57.265Z,4175.6
2022-10-12T22:36:38.300Z,4174.3
2022-10-12T22:42:43.062Z,4175.4
2022-10-12T22:48:18.353Z,4177.6
2022-10-12T22:53:53.559Z,4174.9
2022-10-12T22:59:28.308Z,4174.4
2022-10-12T23:05:13.311Z,4174.3
2022-10-12T23:10:48.169Z,4176.6
2022-10-12T23:16:23.101Z,4172.8
2022-10-12T23:21:57.866Z,4170.7
2022-10-12T23:27:32.799Z,4172.3
2022-10-12T23:33:09.893Z,4174.8
2022-10-12T23:38:50.409Z,4172.6
2022-10-12T23:44:25.321Z,4171.3
2022-10-12T23:50:00.528Z,4170.6
2022-10-12T23:55:37.219Z,4170.7
